Terminal Aerodrome Forecast
Issued by NWS North Platte, NE

Home | Current Version | Previous Version | Text Only | Print | Product List | Glossary Off
Versions: 1 2 3 4 5 6 7 8 9 10 11 12 13 14 15 16 17 18 19 20 21 22 23 24 25

000
FTUS43 KLBF 280500
TAFVTN
TAF
KVTN 280520Z 2806/2906 09008KT P6SM FEW020 SCT029 SCT035
     FM281000 11004KT 2SM BR BKN008
     FM281700 36008KT P6SM SCT008 OVC100=

USA.gov is the U.S. government's official web portal to all federal, state and local government web resources and services.